Time;durP1;ratioP1;P1;durP2;ratioP2;P2;SDS_P1;SDS_P2;PMS_P1;PMS_P2;Temp;Humidity;BMP_temperature;BMP_pressure;BME280_temperature;BME280_humidity;BME280_pressure;Samples;Min_cycle;Max_cycle;Signal;HPM_P1;HPM_P2
2021/06/09 00:01:43;;;;;;;1.77;1.67;;;19.10;98.50;;;;;;5062383;28;20448;-86
2021/06/09 00:04:09;;;;;;;1.30;1.20;;;19.10;98.60;;;;;;5061285;28;20491;-86
2021/06/09 00:06:36;;;;;;;1.40;1.30;;;18.90;98.70;;;;;;5065116;28;20448;-84
2021/06/09 00:09:03;;;;;;;1.83;1.73;;;18.80;98.80;;;;;;5061364;28;20483;-86
2021/06/09 00:11:30;;;;;;;3.30;2.70;;;18.80;99.20;;;;;;5061907;28;20452;-84
2021/06/09 00:13:57;;;;;;;2.53;1.53;;;18.80;99.30;;;;;;5062800;28;20464;-85
2021/06/09 00:16:24;;;;;;;2.63;2.07;;;18.80;99.80;;;;;;5063737;28;20444;-85
2021/06/09 00:18:50;;;;;;;2.20;2.10;;;18.60;99.90;;;;;;5065080;28;20464;-85
2021/06/09 00:21:18;;;;;;;2.33;1.80;;;18.50;99.90;;;;;;5067361;28;20452;-84
2021/06/09 00:23:45;;;;;;;2.10;1.90;;;18.60;99.90;;;;;;5061300;28;20979;-84
2021/06/09 00:26:13;;;;;;;2.40;1.97;;;19.00;99.90;;;;;;5061225;28;20440;-85
2021/06/09 00:28:40;;;;;;;1.60;1.50;;;18.40;99.90;;;;;;5062672;28;20456;-85
2021/06/09 00:31:08;;;;;;;3.20;1.60;;;18.30;99.90;;;;;;5061765;28;20477;-85
2021/06/09 00:33:36;;;;;;;1.70;1.60;;;18.20;99.90;;;;;;5061340;28;20448;-85
2021/06/09 00:36:03;;;;;;;1.90;1.60;;;17.80;99.90;;;;;;5061473;28;20439;-85
2021/06/09 00:38:29;;;;;;;2.17;2.07;;;18.20;99.90;;;;;;5061577;28;20452;-85
2021/06/09 00:40:56;;;;;;;1.70;1.60;;;18.20;99.90;;;;;;5061863;28;20448;-86
2021/06/09 00:43:24;;;;;;;2.20;1.90;;;18.10;99.90;;;;;;5061981;28;20493;-85
2021/06/09 00:45:54;;;;;;;2.10;1.97;;;18.10;99.90;;;;;;5065183;28;20467;-85
2021/06/09 00:48:26;;;;;;;2.93;2.63;;;18.10;99.90;;;;;;5062058;28;20446;-86
2021/06/09 00:50:52;;;;;;;2.10;1.80;;;18.10;99.90;;;;;;5064004;28;20460;-84
2021/06/09 00:53:28;;;;;;;2.67;2.47;;;18.00;99.90;;;;;;5071829;28;20446;-84
2021/06/09 00:55:55;;;;;;;17.43;2.13;;;18.00;99.90;;;;;;5069770;28;20476;-85
2021/06/09 00:58:22;;;;;;;3.90;1.90;;;17.90;99.90;;;;;;5066889;28;20517;-85
2021/06/09 01:00:48;;;;;;;2.23;2.00;;;17.80;99.90;;;;;;5065511;28;20447;-84
2021/06/09 01:03:14;;;;;;;1.53;1.43;;;17.80;99.90;;;;;;5065629;28;20478;-85
2021/06/09 01:05:42;;;;;;;2.00;1.90;;;17.70;99.90;;;;;;5065492;28;21021;-85
2021/06/09 01:08:08;;;;;;;2.60;2.40;;;17.60;99.90;;;;;;5065240;28;20468;-85
2021/06/09 02:13:53;;;;;;;3.27;2.40;;;16.90;99.90;;;;;;5075734;28;20393;-84
2021/06/09 02:16:19;;;;;;;4.07;2.70;;;16.90;99.90;;;;;;5073824;28;20448;-85
2021/06/09 02:18:47;;;;;;;2.33;2.13;;;16.80;99.90;;;;;;5071903;28;20445;-84
2021/06/09 02:21:13;;;;;;;2.23;2.13;;;16.80;99.90;;;;;;5072122;28;20446;-85
2021/06/09 02:23:43;;;;;;;5.77;4.93;;;16.60;99.90;;;;;;5069207;28;20996;-85
2021/06/09 02:26:09;;;;;;;3.93;3.53;;;16.80;99.90;;;;;;5069009;28;20449;-85
2021/06/09 02:28:36;;;;;;;3.23;2.23;;;16.70;99.90;;;;;;5069487;28;20437;-84
2021/06/09 02:31:03;;;;;;;2.30;2.07;;;16.70;99.90;;;;;;5069920;28;20449;-85
2021/06/09 02:33:29;;;;;;;2.50;2.40;;;16.70;99.90;;;;;;5072306;28;20441;-84
2021/06/09 02:35:57;;;;;;;2.50;2.30;;;16.70;99.90;;;;;;5097500;22;37932;-86
2021/06/09 02:38:24;;;;;;;2.93;2.70;;;16.60;99.90;;;;;;5079688;28;20510;-85
2021/06/09 02:40:54;;;;;;;2.30;2.10;;;16.70;99.90;;;;;;5079798;28;20453;-85
2021/06/09 02:43:21;;;;;;;2.70;2.23;;;16.70;99.90;;;;;;5079587;28;20476;-85
2021/06/09 02:45:52;;;;;;;2.53;2.33;;;16.70;99.90;;;;;;5082725;28;20465;-85
2021/06/09 02:48:23;;;;;;;2.87;2.53;;;16.60;99.90;;;;;;5081452;28;20437;-85
2021/06/09 02:50:49;;;;;;;4.63;2.77;;;16.60;99.90;;;;;;5080768;28;20440;-85
2021/06/09 02:53:23;;;;;;;2.43;2.30;;;16.60;99.90;;;;;;5079663;28;20456;-85
2021/06/09 02:55:58;;;;;;;3.70;2.30;;;16.50;99.90;;;;;;5081622;28;20991;-86
2021/06/09 02:58:34;;;;;;;4.00;2.70;;;16.40;99.90;;;;;;5081572;28;20455;-86
2021/06/09 03:01:07;;;;;;;2.90;2.27;;;16.40;99.90;;;;;;5091989;28;20488;-86
2021/06/09 03:03:44;;;;;;;2.60;2.40;;;16.40;99.90;;;;;;5089384;28;20528;-85
2021/06/09 03:06:18;;;;;;;2.93;2.73;;;16.40;99.90;;;;;;5078744;28;20476;-85
2021/06/09 03:08:52;;;;;;;2.90;2.70;;;16.50;99.90;;;;;;5080082;28;20433;-85
2021/06/09 03:11:27;;;;;;;3.03;2.73;;;16.40;99.90;;;;;;5080124;28;20432;-85
2021/06/09 03:14:01;;;;;;;3.77;3.20;;;16.40;99.90;;;;;;5081551;28;20987;-85
2021/06/09 03:16:30;;;;;;;3.30;2.27;;;16.40;99.90;;;;;;5081617;28;20421;-85
2021/06/09 03:19:05;;;;;;;2.50;2.30;;;16.40;99.90;;;;;;5082722;28;20440;-85
2021/06/09 03:21:37;;;;;;;2.87;2.50;;;16.40;99.90;;;;;;5079872;28;20788;-85
2021/06/09 03:24:07;;;;;;;3.10;2.90;;;16.40;99.90;;;;;;5078901;28;20469;-86
2021/06/09 03:26:41;;;;;;;2.60;2.40;;;16.40;99.90;;;;;;5078327;28;20440;-86
2021/06/09 03:29:18;;;;;;;3.90;2.60;;;16.40;99.90;;;;;;5076855;28;20424;-86
2021/06/09 03:31:48;;;;;;;2.93;2.70;;;16.60;99.90;;;;;;5078226;28;20804;-85
2021/06/09 03:34:21;;;;;;;4.43;2.10;;;16.50;99.90;;;;;;5083183;28;20430;-86
2021/06/09 03:36:50;;;;;;;3.67;2.57;;;16.60;99.90;;;;;;5077707;28;20429;-85
2021/06/09 03:39:21;;;;;;;3.27;3.00;;;16.70;99.90;;;;;;5078638;28;20474;-86
2021/06/09 03:41:51;;;;;;;3.17;2.83;;;16.60;99.90;;;;;;5087650;28;20409;-85
2021/06/09 03:44:20;;;;;;;2.23;2.03;;;16.70;99.90;;;;;;5096415;28;20476;-84
2021/06/09 03:46:46;;;;;;;2.50;2.10;;;16.70;99.90;;;;;;5082182;28;20901;-85
2021/06/09 03:49:17;;;;;;;3.20;2.90;;;16.70;99.90;;;;;;5076557;28;20198;-85
2021/06/09 03:51:44;;;;;;;3.50;3.20;;;16.80;99.90;;;;;;5076115;28;20424;-86
2021/06/09 03:54:12;;;;;;;4.00;2.43;;;16.80;99.90;;;;;;5076575;28;20495;-86
2021/06/09 03:56:43;;;;;;;3.30;2.70;;;16.90;99.90;;;;;;5076424;28;20453;-84
2021/06/09 03:59:12;;;;;;;2.50;2.40;;;16.90;99.90;;;;;;5076844;28;20436;-85
2021/06/09 04:01:41;;;;;;;4.17;2.40;;;16.90;99.90;;;;;;5076594;28;20771;-85
2021/06/09 04:04:10;;;;;;;4.90;2.10;;;17.00;99.90;;;;;;5075894;28;20516;-86
2021/06/09 04:06:42;;;;;;;4.73;2.60;;;17.00;99.90;;;;;;5076163;28;20445;-85
2021/06/09 04:09:12;;;;;;;3.30;2.60;;;17.00;99.90;;;;;;5080900;28;20425;-86
2021/06/09 04:11:39;;;;;;;5.33;2.90;;;17.10;99.90;;;;;;5095360;28;20444;-85
2021/06/09 04:14:09;;;;;;;4.23;2.93;;;17.20;99.90;;;;;;5083483;28;20453;-85
2021/06/09 04:16:37;;;;;;;2.70;2.50;;;17.30;99.90;;;;;;5080897;28;20452;-85
2021/06/09 04:19:05;;;;;;;3.77;3.47;;;17.40;99.90;;;;;;5078658;28;20421;-85
2021/06/09 04:21:31;;;;;;;3.60;3.30;;;17.50;99.90;;;;;;5079892;28;20460;-85
2021/06/09 04:23:59;;;;;;;2.60;2.33;;;17.60;99.90;;;;;;5076943;28;20476;-85
2021/06/09 04:26:26;;;;;;;4.20;2.80;;;17.60;99.90;;;;;;5082544;28;20446;-84
2021/06/09 04:28:55;;;;;;;4.17;3.83;;;17.60;99.90;;;;;;5088293;28;20520;-85
2021/06/09 04:31:21;;;;;;;3.53;2.50;;;17.60;99.90;;;;;;5095612;28;20472;-85
2021/06/09 04:33:55;;;;;;;3.40;3.10;;;17.60;99.90;;;;;;5095935;28;20441;-85
2021/06/09 04:36:21;;;;;;;2.73;2.53;;;17.70;99.90;;;;;;5095668;28;20415;-85
2021/06/09 04:38:47;;;;;;;2.83;2.37;;;17.70;99.90;;;;;;5095309;28;20445;-84
2021/06/09 04:41:15;;;;;;;2.87;2.67;;;17.80;99.90;;;;;;5094259;28;20425;-85
2021/06/09 04:43:41;;;;;;;3.17;2.80;;;17.90;99.90;;;;;;5092901;28;20485;-84
2021/06/09 04:46:07;;;;;;;2.87;2.67;;;17.90;99.90;;;;;;5093158;28;20469;-85
2021/06/09 04:48:34;;;;;;;3.33;3.03;;;18.00;99.90;;;;;;5089193;28;20457;-85
2021/06/09 04:51:00;;;;;;;2.90;2.70;;;18.00;99.90;;;;;;5080095;28;20944;-85
2021/06/09 04:53:27;;;;;;;2.77;2.57;;;18.00;99.90;;;;;;5076426;28;20446;-85
2021/06/09 04:55:55;;;;;;;3.70;2.37;;;18.00;99.90;;;;;;5077020;28;20473;-85
2021/06/09 04:58:25;;;;;;;2.83;2.67;;;18.00;99.90;;;;;;5076388;28;20459;-85
2021/06/09 05:00:52;;;;;;;5.60;2.50;;;18.00;99.90;;;;;;5082321;28;20438;-85
2021/06/09 05:03:20;;;;;;;4.97;3.00;;;18.00;99.90;;;;;;5095044;28;20485;-85
2021/06/09 05:05:49;;;;;;;5.33;3.00;;;18.10;99.90;;;;;;5095742;28;20477;-85
2021/06/09 05:08:15;;;;;;;2.63;2.40;;;18.20;99.90;;;;;;5095382;28;20448;-85
2021/06/09 05:10:42;;;;;;;3.60;3.03;;;18.30;99.90;;;;;;5096919;28;20438;-85
2021/06/09 05:13:16;;;;;;;2.93;2.73;;;18.30;99.90;;;;;;5097183;28;20436;-84
2021/06/09 05:15:49;;;;;;;2.80;2.60;;;18.50;99.90;;;;;;5087352;28;20471;-85
2021/06/09 05:18:20;;;;;;;3.83;2.53;;;18.50;99.90;;;;;;5078187;28;20457;-85
2021/06/09 05:20:49;;;;;;;2.60;2.40;;;18.60;99.90;;;;;;5077596;28;20488;-85
2021/06/09 05:23:20;;;;;;;2.90;2.60;;;18.70;99.90;;;;;;5077494;28;20486;-85
2021/06/09 05:25:49;;;;;;;3.10;2.73;;;18.80;99.90;;;;;;5076897;28;20478;-85
2021/06/09 05:28:16;;;;;;;3.00;2.80;;;18.80;99.90;;;;;;5076053;28;20483;-86
2021/06/09 05:30:45;;;;;;;3.33;2.70;;;18.90;99.90;;;;;;5076693;28;20445;-85
2021/06/09 05:33:12;;;;;;;9.83;2.83;;;18.90;99.90;;;;;;5080467;28;20448;-85
2021/06/09 05:35:39;;;;;;;5.17;2.40;;;19.00;99.90;;;;;;5093265;28;20475;-85
2021/06/09 05:38:06;;;;;;;3.80;3.50;;;19.10;99.90;;;;;;5094444;28;20428;-85
2021/06/09 05:40:32;;;;;;;5.60;2.60;;;19.00;99.90;;;;;;5087933;28;21003;-85
2021/06/09 05:42:59;;;;;;;2.30;2.20;;;19.00;99.90;;;;;;5088302;28;20790;-85
2021/06/09 05:45:27;;;;;;;2.63;2.27;;;19.00;99.90;;;;;;5086215;28;20810;-84
2021/06/09 05:47:55;;;;;;;6.80;2.40;;;19.10;99.90;;;;;;5086638;28;20451;-86
2021/06/09 05:50:23;;;;;;;3.00;2.60;;;19.10;99.90;;;;;;5085313;28;20785;-85
2021/06/09 05:52:51;;;;;;;4.00;3.10;;;19.10;99.90;;;;;;5084916;28;20452;-84
2021/06/09 05:55:19;;;;;;;4.73;3.67;;;19.20;99.90;;;;;;5082793;28;20460;-85
2021/06/09 05:57:46;;;;;;;3.00;2.70;;;19.30;99.90;;;;;;5082062;28;20442;-85
2021/06/09 06:00:15;;;;;;;2.70;2.37;;;19.30;99.90;;;;;;5084207;28;20447;-85
2021/06/09 06:02:42;;;;;;;3.70;3.40;;;19.30;99.90;;;;;;5084687;28;20462;-84
2021/06/09 06:05:11;;;;;;;3.23;2.50;;;19.40;99.90;;;;;;5081372;28;20487;-85
2021/06/09 06:07:38;;;;;;;2.70;2.50;;;19.50;99.90;;;;;;5080431;28;20480;-85
2021/06/09 06:10:06;;;;;;;3.50;2.43;;;19.60;99.90;;;;;;5083282;28;20848;-85
2021/06/09 06:12:33;;;;;;;3.83;2.47;;;19.60;99.90;;;;;;5082332;28;20445;-84
2021/06/09 06:14:59;;;;;;;5.17;4.60;;;19.80;99.90;;;;;;5082019;28;20475;-85
2021/06/09 06:17:26;;;;;;;3.57;2.37;;;19.90;99.90;;;;;;5080726;28;20429;-85
2021/06/09 06:19:52;;;;;;;6.00;2.73;;;19.90;99.90;;;;;;5080066;28;20432;-85
2021/06/09 06:22:20;;;;;;;5.63;2.60;;;20.00;99.90;;;;;;5079801;28;20452;-84
2021/06/09 06:24:48;;;;;;;4.03;3.70;;;20.00;99.90;;;;;;5080193;28;20488;-85
2021/06/09 06:27:15;;;;;;;3.80;2.50;;;19.90;99.90;;;;;;5083583;28;20926;-85
2021/06/09 06:29:43;;;;;;;2.33;2.13;;;19.90;99.90;;;;;;5081702;28;20460;-85
2021/06/09 06:32:12;;;;;;;2.57;2.37;;;19.80;99.90;;;;;;5081627;28;20467;-85
2021/06/09 06:34:42;;;;;;;2.70;2.20;;;19.80;99.90;;;;;;5080903;28;20480;-85
2021/06/09 06:37:09;;;;;;;2.23;2.03;;;19.90;99.90;;;;;;5082704;28;20448;-85
2021/06/09 06:39:37;;;;;;;2.77;2.57;;;19.90;99.90;;;;;;5079672;28;20449;-85
2021/06/09 06:42:06;;;;;;;2.90;2.43;;;19.90;99.90;;;;;;5079921;28;20456;-85
2021/06/09 06:44:33;;;;;;;2.80;2.60;;;19.90;99.90;;;;;;5079840;28;20571;-85
2021/06/09 06:46:59;;;;;;;3.37;2.20;;;20.00;99.90;;;;;;5083679;28;20429;-84
2021/06/09 06:49:28;;;;;;;2.60;2.40;;;20.10;99.90;;;;;;5086262;28;20850;-85
2021/06/09 06:51:55;;;;;;;2.50;2.30;;;20.30;99.90;;;;;;5080986;28;20475;-85
2021/06/09 06:54:22;;;;;;;4.20;2.27;;;20.30;99.90;;;;;;5080464;28;20518;-85
2021/06/09 06:56:50;;;;;;;35.70;5.37;;;20.20;99.90;;;;;;5079871;28;20928;-85
2021/06/09 06:59:16;;;;;;;2.53;1.83;;;20.20;99.90;;;;;;5078995;28;20448;-86
2021/06/09 07:01:43;;;;;;;2.23;2.00;;;20.10;99.90;;;;;;5079385;28;20954;-85
2021/06/09 07:04:10;;;;;;;5.37;2.60;;;20.10;99.90;;;;;;5080686;28;20468;-85
2021/06/09 07:06:37;;;;;;;2.30;2.10;;;20.10;99.90;;;;;;5079830;28;20460;-85
2021/06/09 07:09:05;;;;;;;3.30;3.00;;;20.20;99.90;;;;;;5078797;28;20540;-84
2021/06/09 07:11:32;;;;;;;3.07;2.23;;;20.40;99.90;;;;;;5079043;28;20429;-85
2021/06/09 07:14:01;;;;;;;2.47;2.27;;;20.50;99.90;;;;;;5078208;28;20452;-85
2021/06/09 07:16:30;;;;;;;1.97;1.87;;;20.50;99.90;;;;;;5080565;28;20496;-84
2021/06/09 07:18:57;;;;;;;2.47;2.27;;;20.50;99.90;;;;;;5085484;28;20451;-85
2021/06/09 07:21:23;;;;;;;3.03;2.40;;;20.70;99.90;;;;;;5083691;28;20445;-85
2021/06/09 07:23:50;;;;;;;1.90;1.80;;;20.80;99.90;;;;;;5078631;28;20468;-85
2021/06/09 07:26:18;;;;;;;3.30;2.20;;;20.70;99.90;;;;;;5085661;28;20448;-84
2021/06/09 07:28:47;;;;;;;2.67;2.07;;;20.80;99.90;;;;;;5088674;28;20425;-83
2021/06/09 07:31:15;;;;;;;2.70;2.33;;;20.90;99.90;;;;;;5078755;28;20444;-85
2021/06/09 07:33:44;;;;;;;4.50;1.97;;;20.90;99.90;;;;;;5079504;28;20449;-85
2021/06/09 07:36:12;;;;;;;3.20;2.50;;;20.70;99.90;;;;;;5077748;28;20476;-84
2021/06/09 07:38:42;;;;;;;3.03;2.70;;;20.70;99.90;;;;;;5080541;28;20451;-85
2021/06/09 07:41:10;;;;;;;4.20;3.17;;;20.80;99.90;;;;;;5083786;28;20429;-85
2021/06/09 07:43:41;;;;;;;6.67;5.53;;;20.90;99.90;;;;;;5079139;28;20967;-84
2021/06/09 07:46:09;;;;;;;7.60;3.17;;;21.00;99.90;;;;;;5077321;28;20465;-85
2021/06/09 07:48:38;;;;;;;4.63;2.63;;;21.10;99.90;;;;;;5058466;28;20510;-84
2021/06/09 07:51:08;;;;;;;9.07;3.07;;;21.00;99.90;;;;;;5081206;28;20475;-85
2021/06/09 07:53:36;;;;;;;2.10;2.00;;;21.00;99.90;;;;;;5083589;28;20433;-84
2021/06/09 07:56:04;;;;;;;6.97;1.80;;;21.10;99.90;;;;;;5078364;28;20468;-84
2021/06/09 07:58:32;;;;;;;10.07;2.67;;;21.10;99.90;;;;;;5078666;28;20452;-85
2021/06/09 08:01:02;;;;;;;3.87;2.93;;;21.10;99.90;;;;;;5081876;28;20484;-85
2021/06/09 08:03:30;;;;;;;5.73;2.27;;;21.30;99.90;;;;;;5089103;28;20480;-84
2021/06/09 08:06:01;;;;;;;7.23;2.43;;;21.30;99.90;;;;;;5088207;28;20530;-86
2021/06/09 08:08:27;;;;;;;3.63;2.53;;;21.20;99.90;;;;;;5089051;28;20459;-85
2021/06/09 08:10:53;;;;;;;4.07;2.77;;;21.40;99.90;;;;;;5088596;28;20440;-84
2021/06/09 08:13:20;;;;;;;3.40;2.70;;;21.50;99.90;;;;;;5082184;28;20436;-85
2021/06/09 08:15:47;;;;;;;5.50;2.47;;;21.70;99.90;;;;;;5086093;28;20465;-84
2021/06/09 08:18:13;;;;;;;11.50;3.87;;;21.70;99.90;;;;;;5082859;28;20453;-84
2021/06/09 08:21:01;;;;;;;2.37;1.93;;;21.50;99.90;;;;;;5078497;28;20907;-85
2021/06/09 08:23:28;;;;;;;5.30;2.30;;;21.70;99.90;;;;;;5078679;28;20454;-85
2021/06/09 08:25:54;;;;;;;2.77;2.53;;;21.80;99.90;;;;;;5079459;28;20460;-84
2021/06/09 08:28:21;;;;;;;4.90;3.03;;;21.90;99.90;;;;;;5078204;28;20463;-84
2021/06/09 08:30:47;;;;;;;5.67;3.07;;;22.10;99.90;;;;;;5082761;28;20457;-84
2021/06/09 08:33:13;;;;;;;2.07;1.90;;;22.00;99.90;;;;;;5078574;28;20445;-84
2021/06/09 08:35:39;;;;;;;5.87;2.10;;;22.00;99.90;;;;;;5078290;28;20491;-86
2021/06/09 08:38:05;;;;;;;10.47;2.90;;;22.10;99.90;;;;;;5078919;28;20823;-86
2021/06/09 08:40:35;;;;;;;33.40;5.47;;;22.00;99.90;;;;;;5082231;28;20445;-87
2021/06/09 08:43:02;;;;;;;6.73;2.17;;;22.00;99.90;;;;;;5078700;28;20924;-85
2021/06/09 08:45:29;;;;;;;6.80;2.57;;;22.10;99.90;;;;;;5060088;28;20995;-86
2021/06/09 08:47:56;;;;;;;1.97;1.80;;;22.30;99.90;;;;;;5078268;28;20491;-85
2021/06/09 08:50:25;;;;;;;4.73;2.80;;;22.40;99.90;;;;;;5078909;28;20456;-85
2021/06/09 08:52:52;;;;;;;6.20;2.90;;;22.40;99.90;;;;;;5077859;28;20461;-86
2021/06/09 08:55:20;;;;;;;8.27;3.10;;;22.40;99.90;;;;;;5080785;28;20460;-86
2021/06/09 08:57:48;;;;;;;5.63;2.00;;;22.10;99.90;;;;;;5083384;28;20449;-86
2021/06/09 09:00:16;;;;;;;5.93;2.30;;;22.10;99.90;;;;;;5087809;28;20461;-86
2021/06/09 09:02:43;;;;;;;2.83;2.63;;;22.20;99.90;;;;;;5086980;28;20463;-86
2021/06/09 09:05:11;;;;;;;4.20;2.40;;;22.40;99.90;;;;;;5092456;28;20512;-85
2021/06/09 09:07:38;;;;;;;7.80;6.57;;;22.60;99.90;;;;;;5090701;28;20441;-86
2021/06/09 09:10:07;;;;;;;2.30;2.03;;;22.60;99.90;;;;;;5087812;28;20450;-87
2021/06/09 09:12:35;;;;;;;5.50;5.00;;;22.60;99.90;;;;;;5086474;28;20441;-86
2021/06/09 09:15:04;;;;;;;2.60;2.40;;;22.60;99.90;;;;;;5095971;28;20506;-86
2021/06/09 09:17:30;;;;;;;4.60;3.27;;;22.60;99.90;;;;;;5092131;28;20461;-86
2021/06/09 09:20:05;;;;;;;2.47;2.23;;;22.70;99.90;;;;;;5081617;28;20445;-86
2021/06/09 09:22:34;;;;;;;2.90;2.70;;;22.80;99.90;;;;;;5084547;28;20440;-86
2021/06/09 09:25:00;;;;;;;3.20;2.17;;;22.80;99.90;;;;;;5082681;28;20485;-86
2021/06/09 09:27:28;;;;;;;9.83;3.60;;;22.80;99.90;;;;;;5081868;28;20474;-87
2021/06/09 09:30:05;;;;;;;3.23;1.90;;;22.80;99.90;;;;;;5081542;28;20507;-86
2021/06/09 09:32:31;;;;;;;4.67;1.80;;;22.70;99.20;;;;;;5081872;28;20436;-86
2021/06/09 09:35:05;;;;;;;3.43;2.00;;;22.70;99.40;;;;;;5081298;28;20851;-86
2021/06/09 09:37:32;;;;;;;1.93;1.83;;;22.90;99.30;;;;;;5081041;28;20432;-85
2021/06/09 09:40:08;;;;;;;3.33;1.60;;;22.90;97.50;;;;;;5081242;28;20540;-86
2021/06/09 09:42:34;;;;;;;2.10;2.00;;;22.90;99.90;;;;;;5083094;28;20439;-87
2021/06/09 09:45:23;;;;;;;4.90;2.27;;;23.00;99.60;;;;;;5080918;28;20484;-86
2021/06/09 09:48:11;;;;;;;2.70;1.63;;;23.20;97.40;;;;;;5081038;28;20433;-86
2021/06/09 09:50:40;;;;;;;2.30;2.10;;;23.30;98.00;;;;;;5085140;28;20452;-87
2021/06/09 09:53:20;;;;;;;3.63;1.70;;;23.30;99.20;;;;;;5084596;28;20457;-86
2021/06/09 09:56:02;;;;;;;4.40;1.63;;;23.20;96.30;;;;;;5085904;28;20512;-86
2021/06/09 09:58:29;;;;;;;2.83;1.90;;;23.20;97.60;;;;;;5085034;28;20435;-86
2021/06/09 10:01:10;;;;;;;2.50;2.07;;;23.30;96.90;;;;;;5084130;28;20450;-85
2021/06/09 10:03:37;;;;;;;3.67;2.50;;;23.30;96.50;;;;;;5086930;28;20429;-85
2021/06/09 10:06:16;;;;;;;5.73;3.23;;;23.60;97.90;;;;;;5087102;28;20596;-86
2021/06/09 10:08:43;;;;;;;2.03;1.83;;;23.40;96.70;;;;;;5092426;28;20432;-86
2021/06/09 10:11:13;;;;;;;2.20;2.10;;;23.50;96.50;;;;;;5083953;28;20429;-87
2021/06/09 10:13:40;;;;;;;4.13;2.00;;;23.60;98.80;;;;;;5082543;28;20446;-85
2021/06/09 10:19:06;;;;;;;4.70;3.00;;;23.50;94.30;;;;;;5174191;27;158318;-87
2021/06/09 10:21:33;;;;;;;2.73;2.53;;;23.40;95.00;;;;;;5159318;27;20957;-86
2021/06/09 10:24:02;;;;;;;2.37;2.20;;;23.60;97.00;;;;;;5156461;27;20448;-86
2021/06/09 10:26:28;;;;;;;1.73;1.63;;;23.70;97.20;;;;;;5142946;28;20417;-86
2021/06/09 10:29:00;;;;;;;2.80;1.97;;;23.70;93.50;;;;;;5153745;27;20468;-87
2021/06/09 10:31:27;;;;;;;3.20;2.90;;;23.80;94.90;;;;;;5148175;22;20506;-88
2021/06/09 10:33:53;;;;;;;2.57;2.37;;;23.70;95.10;;;;;;5107925;28;20468;-87
2021/06/09 10:36:21;;;;;;;3.43;2.33;;;23.80;95.70;;;;;;5111215;28;20457;-86
2021/06/09 10:38:48;;;;;;;2.77;2.20;;;23.80;93.80;;;;;;5110731;28;20472;-87
2021/06/09 10:41:16;;;;;;;4.40;2.57;;;23.80;94.80;;;;;;5114217;28;20494;-86
2021/06/09 10:43:49;;;;;;;2.00;1.80;;;23.90;97.60;;;;;;5114998;28;20413;-86
2021/06/09 10:46:20;;;;;;;5.00;3.73;;;23.60;93.50;;;;;;5112853;28;20434;-86
2021/06/09 10:48:49;;;;;;;4.47;4.07;;;23.70;95.50;;;;;;5105485;28;20909;-86
2021/06/09 10:51:18;;;;;;;5.60;2.80;;;23.80;97.60;;;;;;5105528;28;20530;-87
2021/06/09 10:53:48;;;;;;;6.03;4.60;;;23.90;98.90;;;;;;5104078;28;21046;-87
2021/06/09 10:56:15;;;;;;;3.03;2.60;;;24.00;98.00;;;;;;5101399;28;20433;-87
2021/06/09 10:58:42;;;;;;;8.27;2.50;;;24.30;94.10;;;;;;5114493;28;20458;-86
2021/06/09 11:01:08;;;;;;;3.70;2.03;;;24.50;95.30;;;;;;5114281;28;20472;-88
2021/06/09 11:03:35;;;;;;;3.30;1.90;;;24.50;94.20;;;;;;5114369;28;20431;-88
2021/06/09 11:06:03;;;;;;;4.23;2.10;;;24.60;94.10;;;;;;5113936;28;20412;-86
2021/06/09 11:08:29;;;;;;;2.80;2.60;;;24.60;92.10;;;;;;5113601;28;20453;-87
2021/06/09 11:10:58;;;;;;;4.30;3.97;;;24.50;94.40;;;;;;5114044;28;20471;-86
2021/06/09 11:13:30;;;;;;;2.17;1.97;;;24.50;96.00;;;;;;5114174;28;20475;-87
2021/06/09 11:16:08;;;;;;;5.10;4.43;;;24.60;96.10;;;;;;5113914;28;20474;-86
2021/06/09 11:18:40;;;;;;;2.83;2.43;;;24.70;96.80;;;;;;5113832;28;20535;-87
2021/06/09 11:21:07;;;;;;;2.57;1.90;;;24.60;94.60;;;;;;5113825;28;20527;-87
2021/06/09 11:23:37;;;;;;;3.07;1.83;;;24.70;92.10;;;;;;5113760;28;20432;-86
2021/06/09 11:26:06;;;;;;;3.40;3.10;;;24.60;93.70;;;;;;5113884;28;20432;-86
2021/06/09 11:28:38;;;;;;;4.73;3.93;;;24.50;95.10;;;;;;5109875;28;20447;-87
2021/06/09 11:31:05;;;;;;;3.00;2.30;;;24.70;94.30;;;;;;5099665;28;20481;-87
2021/06/09 11:33:41;;;;;;;3.63;3.33;;;24.90;94.60;;;;;;5100443;28;20432;-88
2021/06/09 11:36:12;;;;;;;2.20;2.10;;;24.90;92.80;;;;;;5099940;28;20483;-87
2021/06/09 11:38:42;;;;;;;6.93;2.17;;;24.90;91.60;;;;;;5099760;28;20535;-87
2021/06/09 11:41:13;;;;;;;3.33;3.03;;;24.90;92.70;;;;;;5099722;28;20465;-87
2021/06/09 11:43:41;;;;;;;3.73;2.70;;;24.90;92.40;;;;;;5099961;28;20433;-87
2021/06/09 11:46:13;;;;;;;2.60;1.93;;;24.90;93.70;;;;;;5097085;28;20417;-88
2021/06/09 11:48:40;;;;;;;7.30;2.40;;;24.80;91.20;;;;;;5097266;28;20463;-88
2021/06/09 11:51:24;;;;;;;2.13;2.00;;;24.90;93.80;;;;;;5090805;28;20460;-87
2021/06/09 11:53:53;;;;;;;2.70;1.80;;;24.80;93.30;;;;;;5089663;28;20444;-88
2021/06/09 11:56:24;;;;;;;2.60;1.70;;;24.90;92.10;;;;;;5092113;28;20457;-88
2021/06/09 11:58:52;;;;;;;2.70;2.47;;;24.90;91.50;;;;;;5088980;28;20483;-88
2021/06/09 12:01:20;;;;;;;2.70;2.30;;;25.00;91.90;;;;;;5089801;28;20473;-87
2021/06/09 12:04:07;;;;;;;3.30;2.20;;;25.20;93.30;;;;;;5091825;28;20433;-88
2021/06/09 12:06:44;;;;;;;3.90;3.40;;;25.20;90.80;;;;;;5095439;28;20486;-88
2021/06/09 12:09:12;;;;;;;2.30;2.10;;;25.30;93.30;;;;;;5097217;28;20448;-88
2021/06/09 12:12:21;;;;;;;4.03;2.47;;;25.20;89.20;;;;;;5720457;22;20830;-87
2021/06/09 12:14:53;;;;;;;2.03;1.83;;;25.20;89.60;;;;;;5076129;28;20465;-87
2021/06/09 12:17:22;;;;;;;2.13;2.00;;;24.90;90.60;;;;;;5078506;28;20496;-88
2021/06/09 12:19:52;;;;;;;5.20;2.40;;;24.60;91.10;;;;;;5079734;28;20473;-88
2021/06/09 12:22:32;;;;;;;2.63;2.30;;;25.20;92.90;;;;;;5078700;28;20465;-90
2021/06/09 12:25:02;;;;;;;2.57;2.37;;;25.30;92.20;;;;;;5090481;22;20533;-86
2021/06/09 12:27:30;;;;;;;2.23;2.00;;;25.10;89.00;;;;;;5071508;28;20415;-86
2021/06/09 12:29:57;;;;;;;2.50;2.30;;;25.10;91.70;;;;;;5072788;28;20461;-86
2021/06/09 12:32:26;;;;;;;2.77;2.40;;;25.40;91.10;;;;;;5072488;28;20430;-85
2021/06/09 12:34:55;;;;;;;2.40;2.10;;;25.70;89.80;;;;;;5073846;28;20462;-85
2021/06/09 12:37:22;;;;;;;2.70;2.50;;;25.70;88.70;;;;;;5070147;28;20599;-86
2021/06/09 12:40:11;;;;;;;2.10;2.00;;;25.50;90.00;;;;;;5070620;28;20453;-85
2021/06/09 12:42:39;;;;;;;4.83;2.37;;;25.60;91.90;;;;;;5066280;28;20449;-87
2021/06/09 12:45:10;;;;;;;2.10;2.00;;;25.50;91.50;;;;;;5073155;28;20446;-86
2021/06/09 12:47:38;;;;;;;4.90;2.60;;;25.50;90.20;;;;;;5073024;28;20422;-85
2021/06/09 12:50:19;;;;;;;5.00;2.60;;;25.60;91.60;;;;;;5074302;28;20442;-85
2021/06/09 12:52:48;;;;;;;5.93;2.93;;;25.70;87.40;;;;;;5074732;28;20430;-85
2021/06/09 12:55:18;;;;;;;8.23;2.57;;;25.80;91.30;;;;;;5074991;28;20500;-85
2021/06/09 12:57:44;;;;;;;4.40;3.17;;;25.90;90.30;;;;;;5075245;28;20486;-85
2021/06/09 13:00:35;;;;;;;3.37;2.10;;;25.90;91.60;;;;;;5069793;28;20439;-86
2021/06/09 13:03:20;;;;;;;3.07;2.87;;;25.80;90.30;;;;;;5072785;28;20430;-85
2021/06/09 13:05:58;;;;;;;2.23;2.10;;;25.50;91.70;;;;;;5071045;28;20469;-85
2021/06/09 13:08:26;;;;;;;2.50;2.00;;;25.40;90.20;;;;;;5069865;28;20438;-86
2021/06/09 13:11:02;;;;;;;4.50;2.27;;;25.10;86.60;;;;;;5074060;28;20491;-85
2021/06/09 13:13:29;;;;;;;6.83;2.37;;;25.20;90.40;;;;;;5069727;28;20520;-85
2021/06/09 13:15:58;;;;;;;2.93;1.90;;;25.20;90.00;;;;;;5071881;28;20492;-85
2021/06/09 13:18:42;;;;;;;3.73;2.20;;;25.40;89.40;;;;;;5072165;28;20481;-85
2021/06/09 13:21:11;;;;;;;3.30;2.27;;;25.50;90.40;;;;;;5068498;28;20468;-85
2021/06/09 13:23:38;;;;;;;4.27;3.93;;;25.60;90.20;;;;;;5066131;28;20510;-86
2021/06/09 13:26:08;;;;;;;2.70;2.40;;;25.70;91.30;;;;;;5062141;28;20477;-86
2021/06/09 13:28:34;;;;;;;4.83;2.20;;;25.70;90.70;;;;;;5062367;28;20445;-86
2021/06/09 13:31:02;;;;;;;5.93;3.17;;;25.80;87.80;;;;;;5063100;28;20445;-86
2021/06/09 13:33:29;;;;;;;5.17;2.90;;;25.60;90.00;;;;;;5063311;28;20452;-86
2021/06/09 13:35:56;;;;;;;2.57;2.37;;;25.60;92.60;;;;;;5065231;28;20491;-85
2021/06/09 13:38:22;;;;;;;4.03;2.20;;;25.70;91.60;;;;;;5063833;28;20535;-85
2021/06/09 13:40:49;;;;;;;5.80;3.23;;;25.70;89.60;;;;;;5061343;28;20453;-86
2021/06/09 13:43:16;;;;;;;3.17;2.00;;;25.70;90.00;;;;;;5062651;28;20544;-85
2021/06/09 13:45:46;;;;;;;7.90;2.47;;;25.60;91.00;;;;;;5060806;28;20956;-86
2021/06/09 13:48:19;;;;;;;5.53;4.23;;;25.80;92.40;;;;;;5065149;28;20437;-85
2021/06/09 13:50:55;;;;;;;5.73;3.13;;;25.80;92.80;;;;;;5068239;28;20434;-85
2021/06/09 13:53:21;;;;;;;5.83;2.40;;;25.90;92.80;;;;;;5066124;28;20441;-85
2021/06/09 13:55:48;;;;;;;2.77;2.43;;;25.90;90.60;;;;;;5066176;28;20477;-86
2021/06/09 13:58:21;;;;;;;5.37;4.60;;;25.80;89.00;;;;;;5065270;28;20495;-85
2021/06/09 14:00:49;;;;;;;10.60;9.50;;;25.70;92.00;;;;;;5066607;28;20448;-85
2021/06/09 14:03:18;;;;;;;5.33;4.83;;;25.60;93.20;;;;;;5064268;28;20456;-87